Time;durP1;ratioP1;P1;durP2;ratioP2;P2;SDS_P1;SDS_P2;PMS_P1;PMS_P2;Temp;Humidity;BMP_temperature;BMP_pressure;BME280_temperature;BME280_humidity;BME280_pressure;Samples;Min_cycle;Max_cycle;Signal;HPM_P1;HPM_P2
2021/06/16 00:00:24;;;;;;;5.25;2.50;;;512.20;1459.20;;;;;;5102490;28;20019;-64
2021/06/16 00:02:50;;;;;;;9.30;3.75;;;512.10;1459.20;;;;;;5104084;28;20485;-64
2021/06/16 00:05:34;;;;;;;6.03;2.95;;;512.10;1459.20;;;;;;5100858;28;20028;-63
2021/06/16 00:07:59;;;;;;;7.55;3.42;;;512.10;1459.20;;;;;;5100136;28;20084;-64
2021/06/16 00:10:33;;;;;;;7.95;3.22;;;512.10;1459.20;;;;;;5100468;28;20465;-64
2021/06/16 00:13:00;;;;;;;4.70;3.63;;;512.10;1459.20;;;;;;5093021;28;20059;-64
2021/06/16 00:15:30;;;;;;;6.93;3.50;;;512.10;1459.20;;;;;;5093058;28;20421;-64
2021/06/16 00:17:56;;;;;;;19.02;4.55;;;512.10;1459.20;;;;;;5094442;28;20008;-64
2021/06/16 00:20:23;;;;;;;12.35;3.97;;;512.10;1459.20;;;;;;5094184;28;20027;-63
2021/06/16 00:22:49;;;;;;;8.13;4.07;;;512.10;1459.20;;;;;;5096491;28;20023;-62
2021/06/16 00:25:15;;;;;;;5.95;3.40;;;512.10;1459.20;;;;;;5096896;28;20036;-62
2021/06/16 00:27:41;;;;;;;9.38;3.47;;;512.10;1459.20;;;;;;5097023;28;20052;-64
2021/06/16 00:30:09;;;;;;;6.55;3.65;;;512.10;1459.20;;;;;;5097396;28;20048;-64
2021/06/16 00:32:35;;;;;;;6.95;3.47;;;512.10;1459.20;;;;;;5097194;28;20052;-64
2021/06/16 00:35:02;;;;;;;8.65;3.50;;;512.10;1459.20;;;;;;5097343;28;20035;-64
2021/06/16 00:37:28;;;;;;;8.43;3.70;;;512.10;1459.20;;;;;;5097340;28;20023;-65
2021/06/16 00:39:55;;;;;;;6.53;3.65;;;512.10;1433.60;;;;;;5097235;28;20028;-64
2021/06/16 00:42:24;;;;;;;4.22;3.10;;;512.10;1459.20;;;;;;5097159;28;20423;-64
2021/06/16 00:44:50;;;;;;;9.13;3.40;;;512.00;1459.20;;;;;;5097147;28;20035;-64
2021/06/16 00:47:16;;;;;;;7.80;4.38;;;512.00;1459.20;;;;;;5097064;28;20020;-64
2021/06/16 00:49:42;;;;;;;7.25;3.90;;;512.00;1459.20;;;;;;5097073;28;20020;-64
2021/06/16 00:52:08;;;;;;;4.50;3.17;;;512.00;1459.20;;;;;;5097113;28;20354;-64
2021/06/16 00:54:34;;;;;;;8.27;3.40;;;512.00;1459.20;;;;;;5097334;28;20031;-64
2021/06/16 00:57:01;;;;;;;6.90;3.90;;;512.00;1459.20;;;;;;5096978;28;20106;-63
2021/06/16 00:59:45;;;;;;;8.32;3.40;;;512.10;1433.60;;;;;;5097117;28;20031;-63
2021/06/16 01:02:13;;;;;;;7.40;3.60;;;512.00;1459.20;;;;;;5096621;28;20032;-64
2021/06/16 01:04:39;;;;;;;6.32;4.00;;;512.00;1459.20;;;;;;5096703;28;20032;-63
2021/06/16 01:07:11;;;;;;;5.57;3.75;;;512.00;1459.20;;;;;;5096665;28;20091;-62
2021/06/16 01:09:45;;;;;;;7.32;3.67;;;512.00;1459.20;;;;;;5096402;28;20086;-63
2021/06/16 01:12:26;;;;;;;4.50;3.63;;;512.00;1459.20;;;;;;5096510;28;20354;-62
2021/06/16 01:15:10;;;;;;;6.60;4.10;;;512.10;1459.20;;;;;;5097109;28;20024;-64
2021/06/16 01:17:40;;;;;;;5.75;3.85;;;512.00;1459.20;;;;;;5096759;28;20107;-62
2021/06/16 01:20:33;;;;;;;6.63;3.33;;;512.00;1459.20;;;;;;5096463;28;20101;-63
2021/06/16 01:22:58;;;;;;;7.45;3.85;;;487.30;1459.20;;;;;;5096269;28;20020;-63
2021/06/16 01:25:39;;;;;;;6.03;3.80;;;487.30;1459.20;;;;;;5096320;28;20465;-61
2021/06/16 01:28:07;;;;;;;6.95;3.92;;;487.30;1459.20;;;;;;5096090;28;20031;-63
2021/06/16 01:30:34;;;;;;;9.30;3.85;;;487.30;1459.20;;;;;;5095136;28;20360;-61
2021/06/16 01:33:01;;;;;;;9.65;3.88;;;487.20;1459.20;;;;;;5096110;28;20047;-62
2021/06/16 01:35:30;;;;;;;8.27;3.85;;;487.30;1484.80;;;;;;5096125;28;20082;-62
2021/06/16 01:38:00;;;;;;;7.15;3.83;;;487.20;1484.80;;;;;;5096167;28;20050;-61
2021/06/16 01:40:28;;;;;;;7.55;4.25;;;487.20;1484.80;;;;;;5096334;28;20024;-63
2021/06/16 01:42:57;;;;;;;7.57;4.05;;;487.20;1484.80;;;;;;5095872;28;20020;-62
2021/06/16 01:45:23;;;;;;;6.55;4.38;;;487.20;1484.80;;;;;;5095679;28;20040;-63
2021/06/16 01:47:50;;;;;;;8.20;4.60;;;487.20;1484.80;;;;;;5095181;28;20082;-62
2021/06/16 01:50:19;;;;;;;13.45;4.25;;;487.20;1484.80;;;;;;5095930;28;20020;-61
2021/06/16 01:52:48;;;;;;;6.22;4.50;;;487.10;1484.80;;;;;;5095894;28;20089;-61
2021/06/16 01:55:15;;;;;;;8.10;4.82;;;487.10;1484.80;;;;;;5095865;28;20054;-61
2021/06/16 01:57:43;;;;;;;6.75;4.22;;;487.10;1484.80;;;;;;5095779;28;20044;-61
2021/06/16 02:00:10;;;;;;;7.70;4.10;;;487.10;1510.40;;;;;;5095626;28;20028;-63
2021/06/16 02:02:37;;;;;;;8.88;4.15;;;487.10;1510.40;;;;;;5095423;28;20031;-63
2021/06/16 02:05:06;;;;;;;17.45;5.28;;;487.00;1510.40;;;;;;5095579;28;20100;-62
2021/06/16 02:07:39;;;;;;;9.40;4.30;;;486.90;1510.40;;;;;;5095592;28;20377;-62
2021/06/16 02:10:07;;;;;;;6.75;4.57;;;486.90;1510.40;;;;;;5095859;28;20441;-61
2021/06/16 02:12:34;;;;;;;8.48;4.78;;;486.90;1510.40;;;;;;5095178;28;20111;-62
2021/06/16 02:15:09;;;;;;;9.15;4.93;;;486.90;1510.40;;;;;;5095253;28;20016;-63
2021/06/16 02:17:36;;;;;;;8.52;5.35;;;486.90;1510.40;;;;;;5095296;28;20035;-62
2021/06/16 02:20:05;;;;;;;7.05;4.93;;;486.90;1536.00;;;;;;5095478;28;20469;-61
2021/06/16 02:22:31;;;;;;;6.38;4.95;;;486.80;1536.00;;;;;;5095245;28;20020;-61
2021/06/16 02:24:58;;;;;;;10.27;4.75;;;486.80;1536.00;;;;;;5095168;28;20052;-63
2021/06/16 02:27:24;;;;;;;7.97;5.18;;;486.80;1536.00;;;;;;5095044;28;20103;-63
2021/06/16 02:29:49;;;;;;;10.88;5.32;;;486.80;1536.00;;;;;;5095225;28;20032;-63
2021/06/16 02:32:16;;;;;;;12.82;5.38;;;486.80;1561.60;;;;;;5094899;28;20392;-62
2021/06/16 02:34:41;;;;;;;10.15;5.65;;;486.70;1561.60;;;;;;5094884;28;20073;-63
2021/06/16 02:37:11;;;;;;;6.70;5.03;;;486.70;1561.60;;;;;;5094611;28;20024;-61
2021/06/16 02:39:44;;;;;;;9.30;5.22;;;486.70;1561.60;;;;;;5094581;28;20028;-61
2021/06/16 02:42:11;;;;;;;8.15;4.80;;;486.60;1561.60;;;;;;5094768;28;20046;-61
2021/06/16 02:44:42;;;;;;;10.30;5.28;;;486.60;1561.60;;;;;;5094958;28;20039;-61
2021/06/16 02:47:08;;;;;;;10.40;6.05;;;486.60;1587.20;;;;;;5094829;28;20016;-61
2021/06/16 02:49:38;;;;;;;8.10;5.30;;;486.60;1587.20;;;;;;5094744;28;20024;-61
2021/06/16 02:52:08;;;;;;;9.02;5.60;;;486.50;1587.20;;;;;;5094568;28;20102;-63
2021/06/16 02:54:36;;;;;;;10.70;5.25;;;486.50;1587.20;;;;;;5095198;28;20027;-61
2021/06/16 02:57:03;;;;;;;7.57;5.18;;;486.50;1587.20;;;;;;5094870;28;20019;-61
2021/06/16 02:59:31;;;;;;;9.85;5.15;;;486.50;1587.20;;;;;;5094617;28;20028;-62
2021/06/16 03:01:57;;;;;;;7.95;4.95;;;486.50;1587.20;;;;;;5094492;28;20028;-61
2021/06/16 03:04:28;;;;;;;8.63;5.35;;;486.50;1587.20;;;;;;5094435;28;20097;-61
2021/06/16 03:06:55;;;;;;;7.35;5.45;;;486.40;1587.20;;;;;;5094483;28;20375;-61
2021/06/16 03:09:23;;;;;;;8.98;5.32;;;486.40;1587.20;;;;;;5094279;28;20447;-63
2021/06/16 03:11:51;;;;;;;10.88;5.40;;;486.40;1587.20;;;;;;5094633;28;20028;-61
2021/06/16 03:14:23;;;;;;;19.08;6.72;;;486.50;1587.20;;;;;;5094304;28;20028;-61
2021/06/16 03:16:50;;;;;;;13.52;6.30;;;486.50;1587.20;;;;;;5094378;28;20092;-61
2021/06/16 03:19:16;;;;;;;14.27;6.22;;;486.40;1587.20;;;;;;5094237;28;20042;-67
2021/06/16 03:21:44;;;;;;;18.88;7.45;;;486.50;1587.20;;;;;;5094031;28;20103;-61
2021/06/16 03:24:11;;;;;;;16.08;5.30;;;486.50;1587.20;;;;;;5094065;28;20062;-63
2021/06/16 03:26:38;;;;;;;13.43;5.28;;;486.50;1587.20;;;;;;5076161;28;20116;-61
2021/06/16 03:29:04;;;;;;;10.18;5.32;;;486.50;1587.20;;;;;;5093766;28;20049;-63
2021/06/16 03:31:31;;;;;;;11.30;5.65;;;486.40;1587.20;;;;;;5093742;28;20047;-63
2021/06/16 03:33:58;;;;;;;10.95;5.13;;;486.40;1612.80;;;;;;5094403;28;20477;-61
2021/06/16 03:36:25;;;;;;;10.68;4.95;;;486.40;1612.80;;;;;;5093882;28;20061;-61
2021/06/16 03:38:51;;;;;;;12.52;5.13;;;486.40;1612.80;;;;;;5094103;28;20101;-61
2021/06/16 03:41:19;;;;;;;11.40;5.68;;;486.40;1612.80;;;;;;5093949;28;20032;-61
2021/06/16 03:43:48;;;;;;;8.88;5.32;;;486.40;1612.80;;;;;;5093731;28;20113;-61
2021/06/16 03:46:16;;;;;;;16.25;5.68;;;486.40;1612.80;;;;;;5093737;28;20047;-62
2021/06/16 03:48:44;;;;;;;10.93;6.03;;;461.70;1638.40;;;;;;5094484;28;20023;-62
2021/06/16 03:51:11;;;;;;;11.13;5.88;;;461.70;1638.40;;;;;;5093905;28;20051;-62
2021/06/16 03:53:37;;;;;;;10.50;6.07;;;461.60;1638.40;;;;;;5098973;28;20024;-61
2021/06/16 03:56:04;;;;;;;11.82;5.97;;;461.60;1638.40;;;;;;5100624;28;20032;-61
2021/06/16 03:58:30;;;;;;;12.05;5.47;;;461.60;1638.40;;;;;;5100524;28;20032;-62
2021/06/16 04:00:56;;;;;;;9.20;5.93;;;461.60;1638.40;;;;;;5100509;28;20389;-61
2021/06/16 04:03:23;;;;;;;12.52;5.55;;;461.60;1638.40;;;;;;5100319;28;20065;-61
2021/06/16 04:05:49;;;;;;;15.20;6.72;;;461.60;1638.40;;;;;;5100406;28;20366;-61
2021/06/16 04:08:15;;;;;;;15.55;6.07;;;461.60;1638.40;;;;;;5099958;28;20085;-62
2021/06/16 04:10:45;;;;;;;10.02;6.18;;;461.60;1638.40;;;;;;5100372;28;20028;-61
2021/06/16 04:13:12;;;;;;;9.85;6.68;;;461.60;1638.40;;;;;;5100387;28;20034;-61
2021/06/16 04:15:38;;;;;;;9.07;5.18;;;461.60;1638.40;;;;;;5100109;28;20095;-62
2021/06/16 04:18:05;;;;;;;12.80;6.53;;;461.70;1638.40;;;;;;5100328;28;20104;-61
2021/06/16 04:20:31;;;;;;;9.38;6.05;;;461.70;1638.40;;;;;;5100651;28;20020;-61
2021/06/16 04:22:57;;;;;;;8.20;5.15;;;461.70;1664.00;;;;;;5099715;28;20028;-60
2021/06/16 04:25:24;;;;;;;11.48;7.00;;;486.40;1664.00;;;;;;5100314;28;20111;-62
2021/06/16 04:27:53;;;;;;;9.30;5.97;;;486.40;1664.00;;;;;;5100370;28;20020;-61
2021/06/16 04:30:20;;;;;;;10.63;5.75;;;486.40;1664.00;;;;;;5100244;28;20032;-60
2021/06/16 04:32:47;;;;;;;7.60;5.80;;;486.40;1664.00;;;;;;5099409;28;20196;-61
2021/06/16 04:35:13;;;;;;;9.82;5.95;;;486.50;1664.00;;;;;;5099123;28;20076;-61
2021/06/16 04:37:38;;;;;;;9.52;5.97;;;486.50;1638.40;;;;;;5099279;28;20028;-61
2021/06/16 04:40:06;;;;;;;10.07;5.95;;;486.50;1638.40;;;;;;5099260;28;20031;-61
2021/06/16 04:42:32;;;;;;;7.53;5.43;;;486.60;1638.40;;;;;;5099152;28;20031;-61
2021/06/16 04:44:58;;;;;;;7.38;5.10;;;486.70;1638.40;;;;;;5099106;28;20031;-61
2021/06/16 04:47:24;;;;;;;9.05;5.70;;;486.70;1638.40;;;;;;5098781;28;20485;-61
2021/06/16 04:49:49;;;;;;;7.88;5.60;;;486.80;1638.40;;;;;;5099181;28;20024;-61
2021/06/16 04:52:15;;;;;;;8.23;5.15;;;486.90;1638.40;;;;;;5099089;28;20469;-61
2021/06/16 04:54:41;;;;;;;7.97;5.28;;;487.00;1612.80;;;;;;5099116;28;20024;-61
2021/06/16 04:57:08;;;;;;;6.60;4.78;;;487.10;1612.80;;;;;;5098968;28;20430;-61
2021/06/16 04:59:35;;;;;;;8.07;5.00;;;487.20;1612.80;;;;;;5099046;28;20358;-61
2021/06/16 05:02:01;;;;;;;10.07;5.20;;;512.00;1587.20;;;;;;5098588;28;20469;-61
2021/06/16 05:04:27;;;;;;;8.63;5.60;;;512.10;1587.20;;;;;;5096752;28;20119;-61
2021/06/16 05:06:57;;;;;;;9.32;4.63;;;512.20;1587.20;;;;;;5095672;28;20458;-60
2021/06/16 05:09:23;;;;;;;19.65;5.38;;;512.30;1561.60;;;;;;5095578;28;20377;-61
2021/06/16 05:11:49;;;;;;;12.88;5.00;;;512.60;1561.60;;;;;;5095127;28;20020;-61
2021/06/16 05:14:15;;;;;;;11.73;4.97;;;512.80;1536.00;;;;;;5095442;28;20027;-61
2021/06/16 05:16:42;;;;;;;8.88;4.45;;;537.70;1536.00;;;;;;5095138;28;20028;-61
2021/06/16 05:19:15;;;;;;;5.75;4.70;;;538.00;1536.00;;;;;;5095183;28;20028;-61
2021/06/16 05:21:41;;;;;;;8.50;4.25;;;538.10;1510.40;;;;;;5095418;28;20093;-61
2021/06/16 05:24:07;;;;;;;8.40;3.83;;;538.50;1484.80;;;;;;5095215;28;20047;-61
2021/06/16 05:26:35;;;;;;;9.85;4.25;;;563.20;1510.40;;;;;;5095265;28;20020;-61
2021/06/16 05:29:01;;;;;;;6.55;3.88;;;563.50;1484.80;;;;;;5095320;28;20419;-61
2021/06/16 05:31:26;;;;;;;10.70;3.75;;;563.60;1484.80;;;;;;5084878;28;291137;-61
2021/06/16 05:33:52;;;;;;;5.75;3.70;;;563.80;1459.20;;;;;;5096536;28;20028;-61
2021/06/16 05:36:18;;;;;;;6.20;3.80;;;563.90;1459.20;;;;;;5078107;28;20036;-61
2021/06/16 05:38:44;;;;;;;8.52;4.07;;;564.00;1433.60;;;;;;5096203;28;20525;-61
2021/06/16 05:41:09;;;;;;;5.35;3.90;;;588.80;1433.60;;;;;;5096091;28;20024;-61
2021/06/16 05:43:35;;;;;;;7.90;3.50;;;588.90;1433.60;;;;;;5096075;28;20060;-61
2021/06/16 05:46:01;;;;;;;8.10;4.18;;;589.00;1408.00;;;;;;5095957;28;20473;-61
2021/06/16 05:48:27;;;;;;;6.85;4.30;;;589.20;1408.00;;;;;;5095669;28;20465;-61
2021/06/16 05:50:53;;;;;;;5.75;3.53;;;589.40;1382.40;;;;;;5095943;28;20028;-61
2021/06/16 05:53:19;;;;;;;5.45;3.38;;;589.60;1382.40;;;;;;5095978;28;20081;-61
2021/06/16 05:55:44;;;;;;;5.40;3.70;;;614.40;1356.80;;;;;;5095907;28;20035;-61
2021/06/16 05:58:10;;;;;;;7.68;3.55;;;614.60;1356.80;;;;;;5095831;28;20024;-61
2021/06/16 06:00:36;;;;;;;4.75;3.25;;;614.80;1331.20;;;;;;5096117;28;20591;-61
2021/06/16 06:03:02;;;;;;;5.80;3.72;;;615.00;1331.20;;;;;;5095665;28;20107;-61
2021/06/16 06:05:28;;;;;;;5.80;3.65;;;615.20;1305.60;;;;;;5095349;28;20032;-61
2021/06/16 06:07:53;;;;;;;6.85;3.80;;;640.00;1305.60;;;;;;5095631;28;20373;-61
2021/06/16 06:10:19;;;;;;;5.53;3.15;;;640.20;1280.00;;;;;;5095864;28;20031;-61
2021/06/16 06:12:45;;;;;;;5.20;3.97;;;640.40;1254.40;;;;;;5095670;28;20532;-61
2021/06/16 06:15:12;;;;;;;6.88;3.60;;;640.60;1254.40;;;;;;5095151;28;20085;-61
2021/06/16 06:17:38;;;;;;;3.92;3.13;;;640.80;1254.40;;;;;;5095040;28;20020;-62
2021/06/16 06:20:05;;;;;;;6.15;3.67;;;640.90;1228.80;;;;;;5095489;28;20465;-62
2021/06/16 06:22:31;;;;;;;3.90;3.13;;;665.60;1254.40;;;;;;5095231;28;20016;-62
2021/06/16 06:24:56;;;;;;;9.60;3.35;;;665.80;1228.80;;;;;;5095191;28;20085;-62
2021/06/16 06:27:22;;;;;;;9.00;3.15;;;666.00;1228.80;;;;;;5095117;28;20048;-61
2021/06/16 06:29:48;;;;;;;12.52;2.88;;;666.10;1203.20;;;;;;5095828;28;20075;-62
2021/06/16 06:32:13;;;;;;;4.10;2.97;;;666.40;1177.60;;;;;;5094745;28;20485;-62
2021/06/16 06:34:39;;;;;;;6.97;2.80;;;666.50;1177.60;;;;;;5094563;28;20107;-62
2021/06/16 06:37:05;;;;;;;7.38;2.80;;;691.30;1177.60;;;;;;5076804;28;20116;-62
2021/06/16 06:39:30;;;;;;;5.82;2.60;;;691.50;1152.00;;;;;;5095109;28;20050;-62
2021/06/16 06:41:56;;;;;;;7.07;2.83;;;691.70;1152.00;;;;;;5094875;28;20016;-62
2021/06/16 06:44:22;;;;;;;6.38;2.65;;;691.90;1126.40;;;;;;5095318;28;20107;-62
2021/06/16 06:46:48;;;;;;;5.00;2.40;;;692.00;1126.40;;;;;;5094654;28;20477;-62
2021/06/16 06:49:13;;;;;;;4.13;2.70;;;716.80;1126.40;;;;;;5094688;28;20021;-62
2021/06/16 06:51:40;;;;;;;4.40;2.78;;;717.00;1100.80;;;;;;5095084;28;20342;-62
2021/06/16 06:54:09;;;;;;;3.42;2.03;;;717.20;1100.80;;;;;;5094620;28;20040;-62
2021/06/16 06:56:37;;;;;;;3.92;2.40;;;717.30;1075.20;;;;;;5094523;28;20032;-62
2021/06/16 06:59:03;;;;;;;6.50;2.78;;;717.50;1075.20;;;;;;5094623;28;20477;-62
2021/06/16 07:01:29;;;;;;;9.07;2.95;;;717.60;1049.60;;;;;;5094451;28;20347;-62
2021/06/16 07:03:55;;;;;;;5.75;2.65;;;742.40;1075.20;;;;;;5094414;28;20086;-62
2021/06/16 07:06:21;;;;;;;4.63;2.45;;;742.50;1049.60;;;;;;5094582;28;20457;-62
2021/06/16 07:08:46;;;;;;;3.15;2.40;;;742.60;1049.60;;;;;;5094271;28;20031;-62
2021/06/16 07:11:12;;;;;;;7.22;2.40;;;742.80;1049.60;;;;;;5094507;28;20023;-62
2021/06/16 07:13:38;;;;;;;4.32;2.38;;;742.90;1024.00;;;;;;5094500;28;20107;-62
2021/06/16 07:16:04;;;;;;;9.45;2.40;;;743.00;1024.00;;;;;;5094272;28;20020;-62
2021/06/16 07:18:29;;;;;;;7.22;2.65;;;743.10;1024.00;;;;;;5094239;28;20032;-62
2021/06/16 07:20:55;;;;;;;4.53;2.80;;;743.20;1024.00;;;;;;5094325;28;20024;-62
2021/06/16 07:23:21;;;;;;;3.90;2.33;;;768.00;998.40;;;;;;5094248;28;20374;-62
2021/06/16 07:25:46;;;;;;;6.32;2.50;;;768.10;972.80;;;;;;5093983;28;20110;-62
2021/06/16 07:28:12;;;;;;;3.53;2.38;;;768.20;972.80;;;;;;5092876;28;20020;-62
2021/06/16 07:30:38;;;;;;;5.78;2.50;;;768.50;972.80;;;;;;5094034;28;20031;-62
2021/06/16 07:33:04;;;;;;;9.88;2.58;;;768.50;947.20;;;;;;5093657;28;20055;-62
2021/06/16 07:35:29;;;;;;;13.43;3.28;;;768.70;947.20;;;;;;5094340;28;20031;-62
2021/06/16 07:37:55;;;;;;;4.50;2.20;;;768.80;947.20;;;;;;5094146;28;20497;-62
2021/06/16 07:40:21;;;;;;;10.23;2.63;;;793.60;947.20;;;;;;5094035;28;20362;-62
2021/06/16 07:42:47;;;;;;;11.00;2.80;;;793.60;947.20;;;;;;5093991;28;20073;-63
2021/06/16 07:45:13;;;;;;;10.65;2.20;;;793.80;947.20;;;;;;5093886;28;20419;-62
2021/06/16 07:47:39;;;;;;;6.88;2.20;;;793.80;921.60;;;;;;5093974;28;20024;-62
2021/06/16 07:50:07;;;;;;;11.52;2.47;;;794.10;947.20;;;;;;5093901;28;20032;-62
2021/06/16 07:52:32;;;;;;;9.05;2.70;;;794.30;921.60;;;;;;5093615;28;20027;-62
2021/06/16 07:54:58;;;;;;;6.28;2.50;;;794.40;921.60;;;;;;5093298;28;20024;-63
2021/06/16 07:57:24;;;;;;;6.97;2.30;;;794.50;921.60;;;;;;5093827;28;20074;-63
2021/06/16 07:59:50;;;;;;;6.20;3.33;;;819.20;896.00;;;;;;5093953;28;20035;-63
2021/06/16 08:02:17;;;;;;;6.95;2.53;;;819.40;870.40;;;;;;5093835;28;20050;-63
2021/06/16 08:04:43;;;;;;;7.10;2.50;;;819.40;896.00;;;;;;5093775;28;20040;-63
2021/06/16 08:07:10;;;;;;;10.60;2.58;;;819.50;896.00;;;;;;5093915;28;20016;-63
2021/06/16 08:09:42;;;;;;;5.32;2.13;;;819.70;844.80;;;;;;5093670;28;20028;-63
2021/06/16 08:12:13;;;;;;;7.47;2.40;;;819.80;844.80;;;;;;5093993;28;20028;-63
2021/06/16 08:14:40;;;;;;;11.85;2.03;;;819.90;844.80;;;;;;5093786;28;20405;-63
2021/06/16 08:17:07;;;;;;;12.63;2.20;;;820.00;844.80;;;;;;5093516;28;20369;-62
2021/06/16 08:19:33;;;;;;;19.95;2.50;;;820.10;844.80;;;;;;5093616;28;20081;-63
2021/06/16 08:22:00;;;;;;;10.65;2.33;;;844.80;870.40;;;;;;5093669;28;20420;-63
2021/06/16 08:24:26;;;;;;;3.67;1.80;;;844.80;870.40;;;;;;5093499;28;20381;-63
2021/06/16 08:26:52;;;;;;;5.03;2.15;;;845.00;870.40;;;;;;5093531;28;20024;-63
2021/06/16 08:29:18;;;;;;;6.85;2.15;;;845.00;844.80;;;;;;5093548;28;20082;-63
2021/06/16 08:31:44;;;;;;;2.42;1.67;;;845.10;844.80;;;;;;5093345;28;20485;-63
2021/06/16 08:34:10;;;;;;;6.47;1.52;;;845.30;793.60;;;;;;5092887;28;20028;-63
2021/06/16 08:36:36;;;;;;;5.10;1.67;;;845.30;793.60;;;;;;5074838;28;20425;-63
2021/06/16 08:39:03;;;;;;;7.50;1.80;;;845.40;819.20;;;;;;5095042;28;20028;-63
2021/06/16 08:41:30;;;;;;;2.72;1.90;;;845.50;793.60;;;;;;5096815;28;20048;-63
2021/06/16 08:43:56;;;;;;;3.13;1.77;;;845.50;793.60;;;;;;5097231;28;20024;-63
2021/06/16 08:46:22;;;;;;;6.78;2.20;;;845.50;768.00;;;;;;5097069;28;20381;-63
2021/06/16 08:48:48;;;;;;;3.88;1.83;;;845.60;768.00;;;;;;5097427;28;20089;-63
2021/06/16 08:51:16;;;;;;;6.18;2.03;;;845.70;768.00;;;;;;5096803;28;20020;-63
2021/06/16 08:53:43;;;;;;;2.30;1.60;;;845.70;768.00;;;;;;5096942;28;20031;-63
2021/06/16 08:56:09;;;;;;;3.65;2.00;;;870.40;742.40;;;;;;5097027;28;20031;-63
2021/06/16 08:58:40;;;;;;;8.02;2.20;;;870.50;768.00;;;;;;5095628;28;20392;-63
2021/06/16 09:01:07;;;;;;;3.10;1.80;;;870.50;768.00;;;;;;5094490;28;20465;-63
2021/06/16 09:03:33;;;;;;;8.00;1.77;;;870.60;768.00;;;;;;5094890;28;20027;-63
2021/06/16 09:06:11;;;;;;;6.13;1.90;;;870.80;768.00;;;;;;5103400;28;20040;-63
2021/06/16 09:09:07;;;;;;;3.35;1.65;;;870.80;742.40;;;;;;5103758;28;20021;-63
2021/06/16 09:11:38;;;;;;;26.75;3.22;;;870.80;716.80;;;;;;5004696;28;20023;-63
2021/06/16 09:14:20;;;;;;;13.98;2.92;;;870.90;716.80;;;;;;5006358;28;20029;-63
2021/06/16 09:16:47;;;;;;;5.30;2.17;;;871.00;742.40;;;;;;5011393;28;20114;-63
2021/06/16 09:19:17;;;;;;;4.55;1.67;;;871.00;742.40;;;;;;5010489;28;20022;-63
2021/06/16 09:21:43;;;;;;;4.07;2.05;;;871.00;742.40;;;;;;5005706;28;20049;-63
2021/06/16 09:24:09;;;;;;;7.45;1.95;;;871.10;742.40;;;;;;5003016;28;20050;-63
2021/06/16 09:26:37;;;;;;;9.93;1.90;;;871.20;742.40;;;;;;5001044;28;20078;-63
2021/06/16 09:29:04;;;;;;;8.40;2.08;;;871.20;742.40;;;;;;5002769;28;20045;-63
2021/06/16 09:31:44;;;;;;;2.35;2.05;;;871.20;742.40;;;;;;5000871;28;20047;-63
2021/06/16 09:34:16;;;;;;;4.05;2.10;;;871.30;716.80;;;;;;5005722;28;20030;-63
2021/06/16 09:36:50;;;;;;;3.17;1.77;;;871.30;716.80;;;;;;5003854;28;20049;-63
2021/06/16 09:39:20;;;;;;;3.83;1.98;;;871.30;716.80;;;;;;5006510;28;20022;-63
2021/06/16 09:42:14;;;;;;;5.60;2.10;;;896.10;716.80;;;;;;5008003;28;20042;-64
2021/06/16 09:44:49;;;;;;;3.60;1.75;;;896.10;716.80;;;;;;4992593;28;20052;-64
2021/06/16 09:47:24;;;;;;;7.00;1.92;;;896.20;716.80;;;;;;5012992;28;20044;-64
2021/06/16 09:50:00;;;;;;;6.85;2.00;;;871.20;716.80;;;;;;5074898;28;20024;-63
2021/06/16 09:52:26;;;;;;;5.68;1.73;;;871.00;716.80;;;;;;5075696;28;20029;-63
2021/06/16 09:54:51;;;;;;;4.25;1.80;;;871.00;716.80;;;;;;5084829;28;20377;-63
2021/06/16 09:57:17;;;;;;;7.28;2.17;;;871.00;716.80;;;;;;5093783;28;20028;-64
2021/06/16 09:59:47;;;;;;;5.40;1.58;;;870.60;742.40;;;;;;5093381;28;20431;-63
2021/06/16 10:02:19;;;;;;;5.35;1.98;;;870.60;742.40;;;;;;5101700;28;20028;-63
2021/06/16 10:04:49;;;;;;;2.33;1.60;;;870.60;742.40;;;;;;5102959;28;20461;-63
2021/06/16 10:07:21;;;;;;;4.57;1.92;;;870.90;742.40;;;;;;5104240;28;20756;-63
2021/06/16 10:09:50;;;;;;;6.18;1.83;;;871.10;716.80;;;;;;5104787;28;20108;-63
2021/06/16 10:12:17;;;;;;;4.88;1.75;;;871.20;716.80;;;;;;5081219;28;20024;-63
2021/06/16 10:14:43;;;;;;;2.58;1.67;;;896.00;716.80;;;;;;5110933;28;20023;-64
2021/06/16 10:17:09;;;;;;;2.15;1.70;;;896.00;691.20;;;;;;5115638;28;20415;-64
2021/06/16 10:19:36;;;;;;;2.35;1.52;;;896.20;691.20;;;;;;5115822;28;20034;-64
2021/06/16 10:22:05;;;;;;;2.95;1.80;;;896.30;665.60;;;;;;5115854;28;20032;-64
2021/06/16 10:24:30;;;;;;;2.75;1.60;;;896.50;665.60;;;;;;5115736;28;20028;-64
2021/06/16 10:27:00;;;;;;;4.28;1.77;;;896.60;640.00;;;;;;5115757;28;20015;-64
2021/06/16 10:29:35;;;;;;;3.75;1.92;;;896.40;665.60;;;;;;5096994;28;20031;-64
2021/06/16 10:32:06;;;;;;;3.13;1.63;;;896.00;665.60;;;;;;5115353;28;20067;-64
2021/06/16 10:34:53;;;;;;;5.10;1.90;;;871.20;665.60;;;;;;5115618;28;20028;-64
2021/06/16 10:37:40;;;;;;;5.03;1.83;;;871.00;665.60;;;;;;5096242;28;20081;-63
2021/06/16 10:40:22;;;;;;;2.60;1.73;;;871.10;691.20;;;;;;5093290;28;20158;-64
2021/06/16 10:43:02;;;;;;;5.15;1.80;;;871.00;691.20;;;;;;5095449;28;20032;-64
2021/06/16 10:45:41;;;;;;;6.13;1.60;;;870.90;691.20;;;;;;5092906;28;20346;-64
2021/06/16 10:48:10;;;;;;;6.95;1.77;;;870.80;691.20;;;;;;5094413;28;20024;-63
2021/06/16 10:50:45;;;;;;;4.70;2.00;;;871.00;691.20;;;;;;5094183;28;20043;-64
2021/06/16 10:53:19;;;;;;;40.88;4.60;;;871.20;665.60;;;;;;5094688;28;20040;-64
2021/06/16 10:58:21;;;;;;;8.38;1.80;;;871.10;665.60;;;;;;5094193;28;20031;-64
2021/06/16 11:01:29;;;;;;;8.80;2.22;;;871.20;665.60;;;;;;5094440;28;20024;-70
2021/06/16 11:03:54;;;;;;;4.35;2.35;;;871.20;691.20;;;;;;5093852;28;20115;-70
2021/06/16 11:06:32;;;;;;;5.13;2.45;;;870.80;742.40;;;;;;5094286;28;20107;-70
2021/06/16 11:08:59;;;;;;;1.98;1.50;;;870.50;742.40;;;;;;5094293;28;20032;-70
2021/06/16 11:11:48;;;;;;;4.13;1.90;;;845.60;742.40;;;;;;5094299;28;20474;-70
2021/06/16 11:14:47;;;;;;;3.25;1.60;;;845.40;742.40;;;;;;5094401;28;20031;-70
2021/06/16 11:17:31;;;;;;;2.08;1.70;;;845.50;716.80;;;;;;4992535;28;20038;-70
2021/06/16 11:19:59;;;;;;;2.63;1.70;;;870.50;691.20;;;;;;4993719;28;20039;-71
2021/06/16 11:22:24;;;;;;;3.45;1.80;;;870.50;691.20;;;;;;4997864;28;20089;-70
2021/06/16 11:25:13;;;;;;;5.65;1.58;;;845.60;716.80;;;;;;4992037;28;20038;-70
2021/06/16 11:27:57;;;;;;;2.65;1.75;;;845.50;716.80;;;;;;4990919;28;20043;-69
2021/06/16 11:30:53;;;;;;;4.00;1.92;;;845.50;742.40;;;;;;4990850;28;20027;-69
2021/06/16 11:33:18;;;;;;;2.58;1.75;;;845.20;742.40;;;;;;4998083;28;20054;-70
2021/06/16 11:35:55;;;;;;;2.50;1.50;;;845.00;742.40;;;;;;5001727;28;20056;-71
2021/06/16 11:38:21;;;;;;;5.25;2.13;;;845.20;742.40;;;;;;5001567;28;20033;-70
2021/06/16 11:40:58;;;;;;;2.30;1.63;;;845.10;742.40;;;;;;4982965;28;20034;-70
2021/06/16 11:43:39;;;;;;;2.92;1.70;;;844.80;742.40;;;;;;4999482;28;20050;-70
2021/06/16 11:46:12;;;;;;;4.53;1.50;;;845.00;716.80;;;;;;4990669;28;20091;-71
2021/06/16 11:48:38;;;;;;;3.38;1.35;;;845.30;691.20;;;;;;4996538;28;20022;-70
2021/06/16 11:51:07;;;;;;;2.15;1.50;;;845.60;665.60;;;;;;4999350;28;20034;-70
2021/06/16 11:53:35;;;;;;;6.10;1.70;;;870.50;691.20;;;;;;5069039;28;20519;-70
2021/06/16 11:56:03;;;;;;;3.83;1.80;;;870.60;691.20;;;;;;5089655;28;20009;-70
2021/06/16 11:58:32;;;;;;;4.05;1.50;;;870.60;691.20;;;;;;5089487;28;20043;-69
2021/06/16 12:01:13;;;;;;;3.33;1.83;;;870.50;691.20;;;;;;5085921;28;20035;-70
2021/06/16 12:03:41;;;;;;;2.42;1.70;;;870.40;691.20;;;;;;5082132;28;20024;-70
2021/06/16 12:06:15;;;;;;;3.92;1.88;;;870.50;691.20;;;;;;5090431;28;20488;-70
2021/06/16 12:08:44;;;;;;;3.53;1.25;;;870.60;691.20;;;;;;5091623;28;20020;-70
2021/06/16 12:11:24;;;;;;;5.72;1.77;;;870.80;665.60;;;;;;5098416;28;20028;-70
2021/06/16 12:14:03;;;;;;;4.40;1.50;;;870.60;665.60;;;;;;5095787;28;20497;-69
2021/06/16 12:16:30;;;;;;;3.13;1.77;;;870.70;665.60;;;;;;5100743;28;20032;-70
2021/06/16 12:19:20;;;;;;;2.10;1.45;;;870.80;665.60;;;;;;5093597;28;20036;-70
2021/06/16 12:22:01;;;;;;;1.92;1.40;;;871.00;640.00;;;;;;5090201;28;20020;-70
2021/06/16 12:24:39;;;;;;;4.82;1.70;;;870.90;640.00;;;;;;5097950;28;20035;-70
2021/06/16 12:27:34;;;;;;;3.25;1.70;;;870.60;665.60;;;;;;5098594;28;20112;-71
2021/06/16 12:30:01;;;;;;;2.35;1.60;;;845.60;691.20;;;;;;5021030;28;20108;-70